sensor_id;sensor_type;location;lat;lon;timestamp;temperature;humidity
6756;DHT22;3415;51.148;7.014;2023-07-31T00:00:11;16.10;1.00
6756;DHT22;3415;51.148;7.014;2023-07-31T00:02:38;16.00;1.00
6756;DHT22;3415;51.148;7.014;2023-07-31T00:05:06;16.10;1.00
6756;DHT22;3415;51.148;7.014;2023-07-31T00:07:34;16.10;1.00
6756;DHT22;3415;51.148;7.014;2023-07-31T00:10:03;16.10;1.00
6756;DHT22;3415;51.148;7.014;2023-07-31T00:12:30;16.10;1.00
6756;DHT22;3415;51.148;7.014;2023-07-31T00:14:57;16.10;1.00
6756;DHT22;3415;51.148;7.014;2023-07-31T00:17:24;16.10;1.00
6756;DHT22;3415;51.148;7.014;2023-07-31T00:19:51;16.10;1.00
6756;DHT22;3415;51.148;7.014;2023-07-31T00:22:17;16.10;1.00
6756;DHT22;3415;51.148;7.014;2023-07-31T00:24:44;16.10;1.00
6756;DHT22;3415;51.148;7.014;2023-07-31T00:27:13;16.10;1.00
6756;DHT22;3415;51.148;7.014;2023-07-31T00:29:40;16.10;1.00
6756;DHT22;3415;51.148;7.014;2023-07-31T00:32:07;16.10;1.00
6756;DHT22;3415;51.148;7.014;2023-07-31T00:34:34;16.10;1.00
6756;DHT22;3415;51.148;7.014;2023-07-31T00:37:01;16.10;99.90
6756;DHT22;3415;51.148;7.014;2023-07-31T00:39:29;16.10;99.90
6756;DHT22;3415;51.148;7.014;2023-07-31T00:41:56;16.10;99.90
6756;DHT22;3415;51.148;7.014;2023-07-31T00:44:25;16.10;99.90
6756;DHT22;3415;51.148;7.014;2023-07-31T00:46:52;16.10;99.90
6756;DHT22;3415;51.148;7.014;2023-07-31T00:49:20;16.10;99.90
6756;DHT22;3415;51.148;7.014;2023-07-31T00:51:47;16.10;99.90
6756;DHT22;3415;51.148;7.014;2023-07-31T00:54:14;16.10;99.90
6756;DHT22;3415;51.148;7.014;2023-07-31T00:56:42;16.20;99.90
6756;DHT22;3415;51.148;7.014;2023-07-31T00:59:12;16.10;99.90
6756;DHT22;3415;51.148;7.014;2023-07-31T01:01:40;16.10;99.90
6756;DHT22;3415;51.148;7.014;2023-07-31T01:04:07;16.10;99.90
6756;DHT22;3415;51.148;7.014;2023-07-31T01:06:39;16.10;99.90
6756;DHT22;3415;51.148;7.014;2023-07-31T01:09:16;16.10;99.90
6756;DHT22;3415;51.148;7.014;2023-07-31T01:11:52;16.20;99.90
6756;DHT22;3415;51.148;7.014;2023-07-31T01:14:20;16.20;99.90
6756;DHT22;3415;51.148;7.014;2023-07-31T01:16:48;16.20;99.90
6756;DHT22;3415;51.148;7.014;2023-07-31T01:19:18;16.20;99.90
6756;DHT22;3415;51.148;7.014;2023-07-31T01:22:10;16.10;99.90
6756;DHT22;3415;51.148;7.014;2023-07-31T01:24:55;16.10;99.90
6756;DHT22;3415;51.148;7.014;2023-07-31T01:27:30;16.20;99.90
6756;DHT22;3415;51.148;7.014;2023-07-31T01:30:08;16.20;99.90
6756;DHT22;3415;51.148;7.014;2023-07-31T01:32:40;16.20;99.90
6756;DHT22;3415;51.148;7.014;2023-07-31T01:35:10;16.20;99.90
6756;DHT22;3415;51.148;7.014;2023-07-31T01:37:37;16.20;99.90
6756;DHT22;3415;51.148;7.014;2023-07-31T01:40:05;16.20;99.90
6756;DHT22;3415;51.148;7.014;2023-07-31T01:42:34;16.20;99.90
6756;DHT22;3415;51.148;7.014;2023-07-31T01:45:01;16.20;99.90
6756;DHT22;3415;51.148;7.014;2023-07-31T01:47:28;16.20;99.90
6756;DHT22;3415;51.148;7.014;2023-07-31T01:49:55;16.20;99.90
6756;DHT22;3415;51.148;7.014;2023-07-31T01:52:22;16.10;99.90
6756;DHT22;3415;51.148;7.014;2023-07-31T01:54:49;16.20;99.90
6756;DHT22;3415;51.148;7.014;2023-07-31T01:57:16;16.20;99.90
6756;DHT22;3415;51.148;7.014;2023-07-31T01:59:44;16.20;99.90
6756;DHT22;3415;51.148;7.014;2023-07-31T02:02:11;16.20;99.90
6756;DHT22;3415;51.148;7.014;2023-07-31T02:04:38;16.20;99.90
6756;DHT22;3415;51.148;7.014;2023-07-31T02:07:06;16.20;99.90
6756;DHT22;3415;51.148;7.014;2023-07-31T02:09:33;16.20;99.90
6756;DHT22;3415;51.148;7.014;2023-07-31T02:14:27;16.20;99.90
6756;DHT22;3415;51.148;7.014;2023-07-31T02:16:55;16.20;99.90
6756;DHT22;3415;51.148;7.014;2023-07-31T02:19:22;16.20;99.90
6756;DHT22;3415;51.148;7.014;2023-07-31T02:21:49;16.20;99.90
6756;DHT22;3415;51.148;7.014;2023-07-31T02:24:16;16.20;99.90
6756;DHT22;3415;51.148;7.014;2023-07-31T02:26:43;16.20;99.90
6756;DHT22;3415;51.148;7.014;2023-07-31T02:29:10;16.20;99.90
6756;DHT22;3415;51.148;7.014;2023-07-31T02:31:37;16.20;99.90
6756;DHT22;3415;51.148;7.014;2023-07-31T02:34:05;16.30;99.90
6756;DHT22;3415;51.148;7.014;2023-07-31T02:36:32;16.30;99.90
6756;DHT22;3415;51.148;7.014;2023-07-31T02:38:59;16.30;99.90
6756;DHT22;3415;51.148;7.014;2023-07-31T02:41:26;16.30;99.90
6756;DHT22;3415;51.148;7.014;2023-07-31T02:43:53;16.20;99.90
6756;DHT22;3415;51.148;7.014;2023-07-31T02:46:20;16.30;99.90
6756;DHT22;3415;51.148;7.014;2023-07-31T02:48:49;16.30;99.90
6756;DHT22;3415;51.148;7.014;2023-07-31T02:51:18;16.30;99.90
6756;DHT22;3415;51.148;7.014;2023-07-31T02:53:46;16.30;99.90
6756;DHT22;3415;51.148;7.014;2023-07-31T02:56:13;16.30;99.90
6756;DHT22;3415;51.148;7.014;2023-07-31T02:58:40;16.40;99.90
6756;DHT22;3415;51.148;7.014;2023-07-31T03:01:07;16.40;99.90
6756;DHT22;3415;51.148;7.014;2023-07-31T03:03:34;16.40;99.90
6756;DHT22;3415;51.148;7.014;2023-07-31T03:06:01;16.40;99.90
6756;DHT22;3415;51.148;7.014;2023-07-31T03:08:29;16.50;99.90
6756;DHT22;3415;51.148;7.014;2023-07-31T03:10:56;16.50;99.90
6756;DHT22;3415;51.148;7.014;2023-07-31T03:13:23;16.50;99.90
6756;DHT22;3415;51.148;7.014;2023-07-31T03:15:50;16.50;99.90
6756;DHT22;3415;51.148;7.014;2023-07-31T03:18:17;16.50;99.90
6756;DHT22;3415;51.148;7.014;2023-07-31T03:20:44;16.50;99.90
6756;DHT22;3415;51.148;7.014;2023-07-31T03:23:11;16.50;99.90
6756;DHT22;3415;51.148;7.014;2023-07-31T03:25:41;16.50;99.90
6756;DHT22;3415;51.148;7.014;2023-07-31T03:28:08;16.50;99.90
6756;DHT22;3415;51.148;7.014;2023-07-31T03:30:36;16.50;99.90
6756;DHT22;3415;51.148;7.014;2023-07-31T03:33:03;16.60;99.90
6756;DHT22;3415;51.148;7.014;2023-07-31T03:35:30;16.60;99.90
6756;DHT22;3415;51.148;7.014;2023-07-31T03:37:57;16.60;99.90
6756;DHT22;3415;51.148;7.014;2023-07-31T03:40:24;16.50;99.90
6756;DHT22;3415;51.148;7.014;2023-07-31T03:42:52;16.60;99.90
6756;DHT22;3415;51.148;7.014;2023-07-31T03:45:19;16.60;99.90
6756;DHT22;3415;51.148;7.014;2023-07-31T03:47:46;16.80;99.90
6756;DHT22;3415;51.148;7.014;2023-07-31T03:50:13;16.60;99.90
6756;DHT22;3415;51.148;7.014;2023-07-31T03:52:41;16.60;99.90
6756;DHT22;3415;51.148;7.014;2023-07-31T03:55:08;16.60;99.90
6756;DHT22;3415;51.148;7.014;2023-07-31T03:57:35;16.60;99.90
6756;DHT22;3415;51.148;7.014;2023-07-31T04:00:04;16.60;99.90
6756;DHT22;3415;51.148;7.014;2023-07-31T04:02:32;16.60;99.90
6756;DHT22;3415;51.148;7.014;2023-07-31T04:04:59;16.60;99.90
6756;DHT22;3415;51.148;7.014;2023-07-31T04:07:26;16.60;99.90
6756;DHT22;3415;51.148;7.014;2023-07-31T04:09:53;16.50;99.90
6756;DHT22;3415;51.148;7.014;2023-07-31T04:12:20;16.60;99.90
6756;DHT22;3415;51.148;7.014;2023-07-31T04:14:47;16.60;99.90
6756;DHT22;3415;51.148;7.014;2023-07-31T04:17:15;16.50;99.90
6756;DHT22;3415;51.148;7.014;2023-07-31T04:19:42;16.60;99.90
6756;DHT22;3415;51.148;7.014;2023-07-31T04:22:09;16.60;99.90
6756;DHT22;3415;51.148;7.014;2023-07-31T04:24:36;16.50;99.90
6756;DHT22;3415;51.148;7.014;2023-07-31T04:27:03;16.60;99.90
6756;DHT22;3415;51.148;7.014;2023-07-31T04:29:30;16.50;99.90
6756;DHT22;3415;51.148;7.014;2023-07-31T04:31:57;16.60;99.90
6756;DHT22;3415;51.148;7.014;2023-07-31T04:34:25;16.60;99.90
6756;DHT22;3415;51.148;7.014;2023-07-31T04:36:52;16.70;99.90
6756;DHT22;3415;51.148;7.014;2023-07-31T04:39:19;16.60;99.90
6756;DHT22;3415;51.148;7.014;2023-07-31T04:41:46;16.60;99.90
6756;DHT22;3415;51.148;7.014;2023-07-31T04:44:13;16.70;99.90
6756;DHT22;3415;51.148;7.014;2023-07-31T04:46:40;16.70;99.90
6756;DHT22;3415;51.148;7.014;2023-07-31T04:49:07;16.70;99.90
6756;DHT22;3415;51.148;7.014;2023-07-31T04:51:35;16.70;99.90
6756;DHT22;3415;51.148;7.014;2023-07-31T04:54:02;16.60;99.90
6756;DHT22;3415;51.148;7.014;2023-07-31T04:56:29;16.70;99.90
6756;DHT22;3415;51.148;7.014;2023-07-31T04:58:56;16.80;99.90
6756;DHT22;3415;51.148;7.014;2023-07-31T05:01:23;16.70;99.90
6756;DHT22;3415;51.148;7.014;2023-07-31T05:03:50;16.70;99.90
6756;DHT22;3415;51.148;7.014;2023-07-31T05:06:17;16.80;99.90
6756;DHT22;3415;51.148;7.014;2023-07-31T05:08:47;16.80;99.90
6756;DHT22;3415;51.148;7.014;2023-07-31T05:11:14;16.90;99.90
6756;DHT22;3415;51.148;7.014;2023-07-31T05:13:42;17.10;99.90
6756;DHT22;3415;51.148;7.014;2023-07-31T05:16:09;17.10;99.90
6756;DHT22;3415;51.148;7.014;2023-07-31T05:18:36;17.10;99.90
6756;DHT22;3415;51.148;7.014;2023-07-31T05:21:04;17.20;99.90
6756;DHT22;3415;51.148;7.014;2023-07-31T05:23:31;17.20;99.90
6756;DHT22;3415;51.148;7.014;2023-07-31T05:26:04;17.20;99.90
6756;DHT22;3415;51.148;7.014;2023-07-31T05:28:31;17.30;99.90
6756;DHT22;3415;51.148;7.014;2023-07-31T05:31:00;17.40;99.90
6756;DHT22;3415;51.148;7.014;2023-07-31T05:33:27;17.30;99.90
6756;DHT22;3415;51.148;7.014;2023-07-31T05:35:54;17.30;99.90
6756;DHT22;3415;51.148;7.014;2023-07-31T05:38:21;17.30;99.90
6756;DHT22;3415;51.148;7.014;2023-07-31T05:40:48;17.30;99.90
6756;DHT22;3415;51.148;7.014;2023-07-31T05:43:16;17.20;99.90
6756;DHT22;3415;51.148;7.014;2023-07-31T05:45:43;17.30;99.90
6756;DHT22;3415;51.148;7.014;2023-07-31T05:48:10;17.30;99.90
6756;DHT22;3415;51.148;7.014;2023-07-31T05:50:37;17.30;99.90
6756;DHT22;3415;51.148;7.014;2023-07-31T05:53:05;17.30;99.90
6756;DHT22;3415;51.148;7.014;2023-07-31T05:55:34;17.20;99.90
6756;DHT22;3415;51.148;7.014;2023-07-31T05:58:01;17.20;99.90
6756;DHT22;3415;51.148;7.014;2023-07-31T06:00:30;17.30;99.90
6756;DHT22;3415;51.148;7.014;2023-07-31T06:02:57;17.20;99.90
6756;DHT22;3415;51.148;7.014;2023-07-31T06:05:24;17.30;99.90
6756;DHT22;3415;51.148;7.014;2023-07-31T06:07:51;17.20;99.90
6756;DHT22;3415;51.148;7.014;2023-07-31T06:10:18;17.20;99.90
6756;DHT22;3415;51.148;7.014;2023-07-31T06:12:45;17.20;99.90
6756;DHT22;3415;51.148;7.014;2023-07-31T06:15:12;17.20;99.90
6756;DHT22;3415;51.148;7.014;2023-07-31T06:17:41;17.10;99.90
6756;DHT22;3415;51.148;7.014;2023-07-31T06:20:08;17.00;99.90
6756;DHT22;3415;51.148;7.014;2023-07-31T06:22:35;16.90;99.90
6756;DHT22;3415;51.148;7.014;2023-07-31T06:25:03;16.80;99.90
6756;DHT22;3415;51.148;7.014;2023-07-31T06:27:30;16.60;99.90
6756;DHT22;3415;51.148;7.014;2023-07-31T06:29:57;16.60;99.90
6756;DHT22;3415;51.148;7.014;2023-07-31T06:32:24;16.60;99.90
6756;DHT22;3415;51.148;7.014;2023-07-31T06:34:52;16.50;99.90
6756;DHT22;3415;51.148;7.014;2023-07-31T06:37:19;16.60;99.90
6756;DHT22;3415;51.148;7.014;2023-07-31T06:39:46;16.50;99.90
6756;DHT22;3415;51.148;7.014;2023-07-31T06:42:13;16.50;99.90
6756;DHT22;3415;51.148;7.014;2023-07-31T06:44:40;16.50;99.90
6756;DHT22;3415;51.148;7.014;2023-07-31T06:47:10;16.50;99.90
6756;DHT22;3415;51.148;7.014;2023-07-31T06:49:37;16.50;99.90
6756;DHT22;3415;51.148;7.014;2023-07-31T06:52:06;16.60;99.90
6756;DHT22;3415;51.148;7.014;2023-07-31T06:54:33;16.50;99.90
6756;DHT22;3415;51.148;7.014;2023-07-31T06:57:00;16.60;99.90
6756;DHT22;3415;51.148;7.014;2023-07-31T06:59:27;16.60;99.90
6756;DHT22;3415;51.148;7.014;2023-07-31T07:01:54;16.60;99.90
6756;DHT22;3415;51.148;7.014;2023-07-31T07:04:21;16.70;99.90
6756;DHT22;3415;51.148;7.014;2023-07-31T07:06:48;16.60;99.90
6756;DHT22;3415;51.148;7.014;2023-07-31T07:09:16;16.70;99.90
6756;DHT22;3415;51.148;7.014;2023-07-31T07:11:43;16.90;99.90
6756;DHT22;3415;51.148;7.014;2023-07-31T07:14:10;16.80;99.90
6756;DHT22;3415;51.148;7.014;2023-07-31T07:16:37;16.90;99.90
6756;DHT22;3415;51.148;7.014;2023-07-31T07:19:06;17.00;99.90
6756;DHT22;3415;51.148;7.014;2023-07-31T07:21:33;17.00;99.90
6756;DHT22;3415;51.148;7.014;2023-07-31T07:24:00;17.00;99.90
6756;DHT22;3415;51.148;7.014;2023-07-31T07:26:28;17.00;99.90
6756;DHT22;3415;51.148;7.014;2023-07-31T07:28:55;16.90;99.90
6756;DHT22;3415;51.148;7.014;2023-07-31T07:31:23;16.90;99.90
6756;DHT22;3415;51.148;7.014;2023-07-31T07:33:50;16.90;99.90
6756;DHT22;3415;51.148;7.014;2023-07-31T07:36:17;16.90;99.90
6756;DHT22;3415;51.148;7.014;2023-07-31T07:38:44;16.90;99.90
6756;DHT22;3415;51.148;7.014;2023-07-31T07:41:10;16.80;99.90
6756;DHT22;3415;51.148;7.014;2023-07-31T07:43:39;16.80;99.90
6756;DHT22;3415;51.148;7.014;2023-07-31T07:46:06;16.70;99.90
6756;DHT22;3415;51.148;7.014;2023-07-31T07:48:33;16.70;99.90
6756;DHT22;3415;51.148;7.014;2023-07-31T07:50:59;16.60;99.90
6756;DHT22;3415;51.148;7.014;2023-07-31T07:53:26;16.50;99.90
6756;DHT22;3415;51.148;7.014;2023-07-31T07:55:53;16.50;99.90
6756;DHT22;3415;51.148;7.014;2023-07-31T07:58:20;16.50;99.90
6756;DHT22;3415;51.148;7.014;2023-07-31T08:00:51;16.50;99.90
6756;DHT22;3415;51.148;7.014;2023-07-31T08:03:19;16.50;99.90
6756;DHT22;3415;51.148;7.014;2023-07-31T08:05:45;16.50;99.90
6756;DHT22;3415;51.148;7.014;2023-07-31T08:08:14;16.50;99.90
6756;DHT22;3415;51.148;7.014;2023-07-31T08:10:43;16.50;99.90
6756;DHT22;3415;51.148;7.014;2023-07-31T08:13:10;16.60;99.90
6756;DHT22;3415;51.148;7.014;2023-07-31T08:15:37;16.60;99.90
6756;DHT22;3415;51.148;7.014;2023-07-31T08:18:06;16.70;99.90
6756;DHT22;3415;51.148;7.014;2023-07-31T08:20:33;16.60;99.90
6756;DHT22;3415;51.148;7.014;2023-07-31T08:23:00;16.60;99.90
6756;DHT22;3415;51.148;7.014;2023-07-31T08:25:26;16.60;99.90
6756;DHT22;3415;51.148;7.014;2023-07-31T08:27:53;16.40;99.90
6756;DHT22;3415;51.148;7.014;2023-07-31T08:30:21;16.40;99.90
6756;DHT22;3415;51.148;7.014;2023-07-31T08:32:49;16.40;99.90
6756;DHT22;3415;51.148;7.014;2023-07-31T08:35:17;16.40;99.90
6756;DHT22;3415;51.148;7.014;2023-07-31T08:37:44;16.40;99.90
6756;DHT22;3415;51.148;7.014;2023-07-31T08:40:11;16.40;99.90
6756;DHT22;3415;51.148;7.014;2023-07-31T08:42:44;16.50;99.90
6756;DHT22;3415;51.148;7.014;2023-07-31T08:45:14;16.50;99.90
6756;DHT22;3415;51.148;7.014;2023-07-31T08:47:44;16.50;99.90
6756;DHT22;3415;51.148;7.014;2023-07-31T08:50:13;16.50;99.90
6756;DHT22;3415;51.148;7.014;2023-07-31T08:52:41;16.60;99.90
6756;DHT22;3415;51.148;7.014;2023-07-31T08:55:09;16.70;99.90
6756;DHT22;3415;51.148;7.014;2023-07-31T08:57:37;16.70;99.90
6756;DHT22;3415;51.148;7.014;2023-07-31T09:00:07;16.70;99.90
6756;DHT22;3415;51.148;7.014;2023-07-31T09:02:38;16.90;99.90
6756;DHT22;3415;51.148;7.014;2023-07-31T09:05:09;16.90;99.90
6756;DHT22;3415;51.148;7.014;2023-07-31T09:07:37;16.90;99.90
6756;DHT22;3415;51.148;7.014;2023-07-31T09:10:07;17.00;99.90
6756;DHT22;3415;51.148;7.014;2023-07-31T09:12:34;16.90;99.90
6756;DHT22;3415;51.148;7.014;2023-07-31T09:15:02;16.90;99.90
6756;DHT22;3415;51.148;7.014;2023-07-31T09:17:30;16.90;99.90
6756;DHT22;3415;51.148;7.014;2023-07-31T09:19:58;16.90;99.90
6756;DHT22;3415;51.148;7.014;2023-07-31T09:22:32;16.90;99.90
6756;DHT22;3415;51.148;7.014;2023-07-31T09:25:14;17.00;99.90
6756;DHT22;3415;51.148;7.014;2023-07-31T09:27:49;17.00;99.90
6756;DHT22;3415;51.148;7.014;2023-07-31T09:30:18;17.00;99.90
6756;DHT22;3415;51.148;7.014;2023-07-31T09:32:46;16.90;99.90
6756;DHT22;3415;51.148;7.014;2023-07-31T09:35:18;16.70;99.90
6756;DHT22;3415;51.148;7.014;2023-07-31T09:37:49;16.60;99.90
6756;DHT22;3415;51.148;7.014;2023-07-31T09:40:28;16.60;99.90
6756;DHT22;3415;51.148;7.014;2023-07-31T09:42:57;16.60;99.90
6756;DHT22;3415;51.148;7.014;2023-07-31T09:45:24;16.60;99.90
6756;DHT22;3415;51.148;7.014;2023-07-31T09:47:52;16.60;99.90
6756;DHT22;3415;51.148;7.014;2023-07-31T09:50:21;16.60;99.90
6756;DHT22;3415;51.148;7.014;2023-07-31T09:52:49;16.60;99.90
6756;DHT22;3415;51.148;7.014;2023-07-31T09:55:17;16.60;99.90
6756;DHT22;3415;51.148;7.014;2023-07-31T09:57:47;16.70;99.90
6756;DHT22;3415;51.148;7.014;2023-07-31T10:00:17;16.70;99.90
6756;DHT22;3415;51.148;7.014;2023-07-31T10:02:46;16.80;99.90
6756;DHT22;3415;51.148;7.014;2023-07-31T10:05:14;16.80;99.90
6756;DHT22;3415;51.148;7.014;2023-07-31T10:07:48;16.70;99.90
6756;DHT22;3415;51.148;7.014;2023-07-31T10:10:20;16.70;99.90
6756;DHT22;3415;51.148;7.014;2023-07-31T10:12:50;16.80;99.90
6756;DHT22;3415;51.148;7.014;2023-07-31T10:15:19;16.80;99.90
6756;DHT22;3415;51.148;7.014;2023-07-31T10:17:47;16.90;99.90
6756;DHT22;3415;51.148;7.014;2023-07-31T10:20:16;17.00;99.90
6756;DHT22;3415;51.148;7.014;2023-07-31T10:22:44;17.10;99.90
6756;DHT22;3415;51.148;7.014;2023-07-31T10:25:12;17.10;99.90
6756;DHT22;3415;51.148;7.014;2023-07-31T10:27:39;17.00;99.90
6756;DHT22;3415;51.148;7.014;2023-07-31T10:30:11;17.00;99.90
6756;DHT22;3415;51.148;7.014;2023-07-31T10:32:40;17.00;99.90
6756;DHT22;3415;51.148;7.014;2023-07-31T10:35:09;17.00;99.90
6756;DHT22;3415;51.148;7.014;2023-07-31T10:37:38;17.00;99.90
6756;DHT22;3415;51.148;7.014;2023-07-31T10:40:09;17.00;99.90
6756;DHT22;3415;51.148;7.014;2023-07-31T10:42:38;17.00;99.90
6756;DHT22;3415;51.148;7.014;2023-07-31T10:45:23;17.10;99.90
6756;DHT22;3415;51.148;7.014;2023-07-31T10:47:58;17.20;99.90
6756;DHT22;3415;51.148;7.014;2023-07-31T10:50:27;17.20;99.90
6756;DHT22;3415;51.148;7.014;2023-07-31T10:52:56;17.20;99.90
6756;DHT22;3415;51.148;7.014;2023-07-31T10:55:26;17.60;99.90
6756;DHT22;3415;51.148;7.014;2023-07-31T10:57:56;17.60;99.90
6756;DHT22;3415;51.148;7.014;2023-07-31T11:00:27;17.80;99.90
6756;DHT22;3415;51.148;7.014;2023-07-31T11:03:00;17.60;99.90
6756;DHT22;3415;51.148;7.014;2023-07-31T11:05:42;17.70;99.90
6756;DHT22;3415;51.148;7.014;2023-07-31T11:08:14;17.80;99.90
6756;DHT22;3415;51.148;7.014;2023-07-31T11:10:43;17.80;99.90
6756;DHT22;3415;51.148;7.014;2023-07-31T11:13:10;17.90;99.90
6756;DHT22;3415;51.148;7.014;2023-07-31T11:15:39;18.10;99.90
6756;DHT22;3415;51.148;7.014;2023-07-31T11:18:06;17.90;99.90
6756;DHT22;3415;51.148;7.014;2023-07-31T11:20:36;17.90;99.90
6756;DHT22;3415;51.148;7.014;2023-07-31T11:23:07;18.00;99.90
6756;DHT22;3415;51.148;7.014;2023-07-31T11:25:35;18.00;99.90
6756;DHT22;3415;51.148;7.014;2023-07-31T11:28:04;18.10;99.90
6756;DHT22;3415;51.148;7.014;2023-07-31T11:30:32;18.20;99.90
6756;DHT22;3415;51.148;7.014;2023-07-31T11:33:01;18.30;99.90
6756;DHT22;3415;51.148;7.014;2023-07-31T11:35:30;18.20;99.90
6756;DHT22;3415;51.148;7.014;2023-07-31T11:37:58;18.20;99.90
6756;DHT22;3415;51.148;7.014;2023-07-31T11:40:26;18.20;99.90
6756;DHT22;3415;51.148;7.014;2023-07-31T11:42:58;18.20;99.90
6756;DHT22;3415;51.148;7.014;2023-07-31T11:45:26;18.20;99.90
6756;DHT22;3415;51.148;7.014;2023-07-31T11:47:54;18.30;99.90
6756;DHT22;3415;51.148;7.014;2023-07-31T11:50:24;18.20;99.90
6756;DHT22;3415;51.148;7.014;2023-07-31T11:52:54;18.20;99.90
6756;DHT22;3415;51.148;7.014;2023-07-31T11:55:23;18.30;99.90
6756;DHT22;3415;51.148;7.014;2023-07-31T11:57:51;18.30;99.90
6756;DHT22;3415;51.148;7.014;2023-07-31T12:00:19;18.40;99.90
6756;DHT22;3415;51.148;7.014;2023-07-31T12:02:46;18.30;99.90
6756;DHT22;3415;51.148;7.014;2023-07-31T12:05:13;18.40;99.90
6756;DHT22;3415;51.148;7.014;2023-07-31T12:07:46;18.50;96.70
6756;DHT22;3415;51.148;7.014;2023-07-31T12:10:27;18.50;51.10
6756;DHT22;3415;51.148;7.014;2023-07-31T12:13:00;16.00;48.40
6756;DHT22;3415;51.148;7.014;2023-07-31T12:15:37;18.50;50.80
6756;DHT22;3415;51.148;7.014;2023-07-31T12:18:05;18.50;50.70
6756;DHT22;3415;51.148;7.014;2023-07-31T12:20:34;18.40;50.70
6756;DHT22;3415;51.148;7.014;2023-07-31T12:23:02;18.30;50.50
6756;DHT22;3415;51.148;7.014;2023-07-31T12:25:30;16.50;48.90
6756;DHT22;3415;51.148;7.014;2023-07-31T12:28:03;18.50;48.10
6756;DHT22;3415;51.148;7.014;2023-07-31T12:30:33;18.50;50.90
6756;DHT22;3415;51.148;7.014;2023-07-31T12:33:04;18.60;50.90
6756;DHT22;3415;51.148;7.014;2023-07-31T12:35:36;18.80;51.10
6756;DHT22;3415;51.148;7.014;2023-07-31T12:38:05;18.80;5.50
6756;DHT22;3415;51.148;7.014;2023-07-31T12:40:32;18.90;5.10
6756;DHT22;3415;51.148;7.014;2023-07-31T12:43:01;18.90;7.70
6756;DHT22;3415;51.148;7.014;2023-07-31T12:45:29;18.90;2.90
6756;DHT22;3415;51.148;7.014;2023-07-31T12:47:57;18.90;13.60
6756;DHT22;3415;51.148;7.014;2023-07-31T12:50:24;18.80;2.40
6756;DHT22;3415;51.148;7.014;2023-07-31T12:52:51;18.80;1.00
6756;DHT22;3415;51.148;7.014;2023-07-31T12:55:21;18.80;1.00
6756;DHT22;3415;51.148;7.014;2023-07-31T12:57:48;18.80;1.00
6756;DHT22;3415;51.148;7.014;2023-07-31T13:00:15;18.80;1.00
6756;DHT22;3415;51.148;7.014;2023-07-31T13:02:42;19.00;1.00
6756;DHT22;3415;51.148;7.014;2023-07-31T13:05:09;19.20;1.00
6756;DHT22;3415;51.148;7.014;2023-07-31T13:07:36;19.30;1.00
6756;DHT22;3415;51.148;7.014;2023-07-31T13:10:04;19.30;1.00
6756;DHT22;3415;51.148;7.014;2023-07-31T13:12:34;19.30;1.00
6756;DHT22;3415;51.148;7.014;2023-07-31T13:15:01;19.30;1.00
6756;DHT22;3415;51.148;7.014;2023-07-31T13:17:28;19.40;1.00
6756;DHT22;3415;51.148;7.014;2023-07-31T13:19:55;19.20;1.00
6756;DHT22;3415;51.148;7.014;2023-07-31T13:22:22;19.50;1.00
6756;DHT22;3415;51.148;7.014;2023-07-31T13:24:49;19.10;1.00
6756;DHT22;3415;51.148;7.014;2023-07-31T13:27:16;19.00;1.00
6756;DHT22;3415;51.148;7.014;2023-07-31T13:29:46;19.00;1.00
6756;DHT22;3415;51.148;7.014;2023-07-31T13:32:13;19.00;1.00
6756;DHT22;3415;51.148;7.014;2023-07-31T13:34:40;19.10;1.00
6756;DHT22;3415;51.148;7.014;2023-07-31T13:37:07;19.20;1.00
6756;DHT22;3415;51.148;7.014;2023-07-31T13:39:34;19.50;1.00
6756;DHT22;3415;51.148;7.014;2023-07-31T13:42:02;19.70;1.00
6756;DHT22;3415;51.148;7.014;2023-07-31T13:44:32;19.90;1.00
6756;DHT22;3415;51.148;7.014;2023-07-31T13:47:00;20.20;1.00
6756;DHT22;3415;51.148;7.014;2023-07-31T13:49:28;20.80;1.00
6756;DHT22;3415;51.148;7.014;2023-07-31T13:51:55;20.70;1.00
6756;DHT22;3415;51.148;7.014;2023-07-31T13:54:22;21.30;1.00
6756;DHT22;3415;51.148;7.014;2023-07-31T13:56:50;21.00;1.00
6756;DHT22;3415;51.148;7.014;2023-07-31T13:59:16;21.10;1.00
6756;DHT22;3415;51.148;7.014;2023-07-31T14:01:44;20.70;1.00
6756;DHT22;3415;51.148;7.014;2023-07-31T14:04:12;20.70;1.00
6756;DHT22;3415;51.148;7.014;2023-07-31T14:06:39;21.00;1.00
6756;DHT22;3415;51.148;7.014;2023-07-31T14:09:06;20.40;1.00
6756;DHT22;3415;51.148;7.014;2023-07-31T14:11:33;20.50;1.00
6756;DHT22;3415;51.148;7.014;2023-07-31T14:14:00;20.30;1.00
6756;DHT22;3415;51.148;7.014;2023-07-31T14:16:28;20.20;1.00
6756;DHT22;3415;51.148;7.014;2023-07-31T14:18:55;20.00;1.00
6756;DHT22;3415;51.148;7.014;2023-07-31T14:21:26;19.80;1.00
6756;DHT22;3415;51.148;7.014;2023-07-31T14:23:53;19.70;1.00
6756;DHT22;3415;51.148;7.014;2023-07-31T14:26:20;19.70;1.00
6756;DHT22;3415;51.148;7.014;2023-07-31T14:28:47;19.60;1.00
6756;DHT22;3415;51.148;7.014;2023-07-31T14:31:14;19.60;1.00
6756;DHT22;3415;51.148;7.014;2023-07-31T14:33:41;19.60;1.00
6756;DHT22;3415;51.148;7.014;2023-07-31T14:36:08;19.50;1.00
6756;DHT22;3415;51.148;7.014;2023-07-31T14:38:36;19.50;1.00
6756;DHT22;3415;51.148;7.014;2023-07-31T14:41:03;19.50;1.00
6756;DHT22;3415;51.148;7.014;2023-07-31T14:43:30;19.60;1.00
6756;DHT22;3415;51.148;7.014;2023-07-31T14:45:57;19.60;1.00
6756;DHT22;3415;51.148;7.014;2023-07-31T14:48:25;19.80;1.00
6756;DHT22;3415;51.148;7.014;2023-07-31T14:50:52;19.70;1.00
6756;DHT22;3415;51.148;7.014;2023-07-31T14:53:19;20.00;1.00
6756;DHT22;3415;51.148;7.014;2023-07-31T14:55:48;19.70;1.00
6756;DHT22;3415;51.148;7.014;2023-07-31T14:58:14;19.80;1.00
6756;DHT22;3415;51.148;7.014;2023-07-31T15:00:42;19.80;1.00
6756;DHT22;3415;51.148;7.014;2023-07-31T15:03:09;19.70;1.00
6756;DHT22;3415;51.148;7.014;2023-07-31T15:05:36;19.80;1.00
6756;DHT22;3415;51.148;7.014;2023-07-31T15:08:03;19.80;1.00
6756;DHT22;3415;51.148;7.014;2023-07-31T15:10:30;19.80;1.00
6756;DHT22;3415;51.148;7.014;2023-07-31T15:12:59;19.80;1.00
6756;DHT22;3415;51.148;7.014;2023-07-31T15:15:27;19.80;1.00
6756;DHT22;3415;51.148;7.014;2023-07-31T15:17:54;19.80;1.00
6756;DHT22;3415;51.148;7.014;2023-07-31T15:20:22;19.80;1.00
6756;DHT22;3415;51.148;7.014;2023-07-31T15:22:49;19.70;1.00
6756;DHT22;3415;51.148;7.014;2023-07-31T15:25:16;19.70;1.00
6756;DHT22;3415;51.148;7.014;2023-07-31T15:27:43;19.70;1.00
6756;DHT22;3415;51.148;7.014;2023-07-31T15:30:12;19.70;1.00
6756;DHT22;3415;51.148;7.014;2023-07-31T15:32:39;19.70;1.00
6756;DHT22;3415;51.148;7.014;2023-07-31T15:35:06;19.70;1.00
6756;DHT22;3415;51.148;7.014;2023-07-31T15:37:34;19.70;1.00
6756;DHT22;3415;51.148;7.014;2023-07-31T15:40:01;19.70;1.00
6756;DHT22;3415;51.148;7.014;2023-07-31T15:42:27;19.70;1.00
6756;DHT22;3415;51.148;7.014;2023-07-31T15:44:55;19.60;1.00
6756;DHT22;3415;51.148;7.014;2023-07-31T15:47:23;19.60;1.00
6756;DHT22;3415;51.148;7.014;2023-07-31T15:49:50;19.60;1.00
6756;DHT22;3415;51.148;7.014;2023-07-31T15:52:17;19.80;1.00
6756;DHT22;3415;51.148;7.014;2023-07-31T15:54:44;19.70;1.00
6756;DHT22;3415;51.148;7.014;2023-07-31T15:57:11;19.60;1.00
6756;DHT22;3415;51.148;7.014;2023-07-31T15:59:38;19.60;1.00
6756;DHT22;3415;51.148;7.014;2023-07-31T16:02:05;19.50;1.00
6756;DHT22;3415;51.148;7.014;2023-07-31T16:04:37;19.30;1.00
6756;DHT22;3415;51.148;7.014;2023-07-31T16:07:05;19.40;1.00
6756;DHT22;3415;51.148;7.014;2023-07-31T16:09:32;19.20;1.00
6756;DHT22;3415;51.148;7.014;2023-07-31T16:11:59;19.10;1.00